Capitol Logistics 965

Operating for DHL



LIMJ
Genoa Cristoforo Colombo Airport
Genoa, IT
EDDK
Cologne Bonn Airport
Cologne, DE

Route Details

Aircraft Information
Group: European Fleet
Types: A30F,A31F,B738
Route Data
Demand: L
Distance: 394nm
Duration: 1h 44m
Recm'd Route: GEN MONEB N851 ABESI N851 ROLSA Z162 ZUE T163 KOVAN T844 ASKIK T840 GULKO
Origin Wx: LIMJ 270550Z 03014KT CAVOK 24/17 Q1016
Dest. Wx: EDDK 270550Z AUTO 27014KT 6000 -DZ OVC011 13/12 Q1020 TEMPO 3500 RADZ BKN009
Notes:

Financial History
Total Freight: 269,589lbs
Average Load: 24,508lbs/flt
Fuel Used: 131,032lbs
Avg. Fuel Used: 11,912lbs/flt
Fuel Expense: $58,182
Avg. Fuel Expense: $5,289
Avg. Fuel Cost: $0.44/lbs
Total Gross Income: $516,114
Pilot Pay: $2,339
Total Expenses: $89,287
Total Revenue: $399,663
Average Revenue: $46,919.44